createdAt,value
2018-07-12T00:00:32.749Z,20.10
2018-07-12T00:03:00.315Z,18.53
2018-07-12T00:05:27.989Z,31.73
2018-07-12T00:07:55.512Z,17.53
2018-07-12T00:10:23.057Z,24.83
2018-07-12T00:12:52.930Z,34.37
2018-07-12T00:15:20.517Z,15.57
2018-07-12T00:17:50.073Z,16.40
2018-07-12T00:20:17.696Z,19.17
2018-07-12T00:22:45.166Z,37.93
2018-07-12T00:25:12.934Z,20.90
2018-07-12T00:27:40.406Z,20.00
2018-07-12T00:30:07.906Z,18.93
2018-07-12T00:32:35.406Z,41.03
2018-07-12T00:35:02.931Z,23.60
2018-07-12T00:37:30.375Z,46.77
2018-07-12T00:39:59.343Z,20.17
2018-07-12T00:42:28.394Z,17.73
2018-07-12T00:44:56.960Z,20.50
2018-07-12T00:47:29.259Z,37.93
2018-07-12T00:49:56.830Z,21.77
2018-07-12T00:52:24.388Z,40.73
2018-07-12T00:54:51.857Z,35.13
2018-07-12T00:57:19.327Z,31.57
2018-07-12T00:59:46.789Z,28.60
2018-07-12T01:02:14.090Z,32.70
2018-07-12T01:04:41.638Z,42.30
2018-07-12T01:07:09.007Z,41.77
2018-07-12T01:09:36.333Z,49.87
2018-07-12T01:12:03.637Z,47.57
2018-07-12T01:14:31.792Z,40.73
2018-07-12T01:16:59.193Z,39.50
2018-07-12T01:19:26.515Z,42.30
2018-07-12T01:21:53.861Z,38.40
2018-07-12T01:24:21.213Z,43.63
2018-07-12T01:26:48.525Z,39.70
2018-07-12T01:29:15.879Z,42.90
2018-07-12T01:31:43.227Z,44.60
2018-07-12T01:34:10.523Z,69.00
2018-07-12T01:36:37.842Z,34.00
2018-07-12T01:39:06.072Z,36.27
2018-07-12T01:41:33.446Z,40.40
2018-07-12T01:44:00.779Z,41.10
2018-07-12T01:46:28.084Z,40.40
2018-07-12T01:48:55.388Z,43.63
2018-07-12T01:51:22.724Z,47.30
2018-07-12T01:53:50.012Z,43.10
2018-07-12T01:56:17.341Z,35.60
2018-07-12T01:58:44.714Z,45.90
2018-07-12T02:01:12.093Z,46.20
2018-07-12T02:03:39.442Z,34.67
2018-07-12T02:06:06.866Z,45.07
2018-07-12T02:08:34.186Z,55.93
2018-07-12T02:11:01.545Z,41.13
2018-07-12T02:13:28.854Z,48.20
2018-07-12T02:15:56.223Z,50.63
2018-07-12T02:18:23.547Z,47.63
2018-07-12T02:20:50.894Z,31.83
2018-07-12T02:23:18.215Z,37.70
2018-07-12T02:25:45.566Z,41.53
2018-07-12T02:28:12.904Z,40.47
2018-07-12T02:30:40.212Z,41.63
2018-07-12T02:33:07.703Z,36.77
2018-07-12T02:35:35.028Z,35.20
2018-07-12T02:38:02.362Z,58.10
2018-07-12T02:40:29.691Z,47.73
2018-07-12T02:42:56.972Z,37.93
2018-07-12T02:45:24.328Z,36.90
2018-07-12T02:47:51.634Z,46.00
2018-07-12T02:50:18.942Z,35.00
2018-07-12T02:52:47.347Z,50.53
2018-07-12T02:55:14.645Z,34.90
2018-07-12T02:57:42.006Z,42.90
2018-07-12T03:00:09.341Z,45.83
2018-07-12T03:02:36.791Z,46.70
2018-07-12T03:05:04.113Z,42.67
2018-07-12T03:07:31.486Z,70.13
2018-07-12T03:09:58.824Z,55.03
2018-07-12T03:12:26.182Z,55.23
2018-07-12T03:14:53.504Z,56.57
2018-07-12T03:17:20.914Z,56.17
2018-07-12T03:19:48.974Z,55.03
2018-07-12T03:22:16.298Z,42.00
2018-07-12T03:24:44.453Z,46.07
2018-07-12T03:27:11.754Z,48.63
2018-07-12T03:29:39.065Z,46.57
2018-07-12T03:32:06.378Z,41.67
2018-07-12T03:34:33.733Z,39.77
2018-07-12T03:37:01.088Z,44.50
2018-07-12T03:39:28.351Z,40.03
2018-07-12T03:41:55.703Z,44.77
2018-07-12T03:44:23.847Z,55.70
2018-07-12T03:46:51.263Z,39.43
2018-07-12T03:49:18.626Z,48.03
2018-07-12T03:51:45.971Z,46.27
2018-07-12T03:54:13.396Z,43.13
2018-07-12T03:56:40.814Z,55.17
2018-07-12T03:59:08.244Z,48.70
2018-07-12T04:01:35.582Z,40.67
2018-07-12T04:04:02.874Z,41.90
2018-07-12T04:06:30.222Z,62.70
2018-07-12T04:08:57.518Z,46.00
2018-07-12T04:11:24.830Z,40.33
2018-07-12T04:13:52.250Z,46.40
2018-07-12T04:16:19.595Z,53.37
2018-07-12T04:18:46.949Z,42.50
2018-07-12T04:21:14.314Z,54.63
2018-07-12T04:23:41.649Z,49.13
2018-07-12T04:26:08.980Z,42.20
2018-07-12T04:28:36.318Z,68.57
2018-07-12T04:31:03.701Z,58.50
2018-07-12T04:33:31.023Z,36.57
2018-07-12T04:35:58.489Z,51.77
2018-07-12T04:38:25.859Z,38.87
2018-07-12T04:40:53.268Z,43.07
2018-07-12T04:43:20.671Z,47.33
2018-07-12T04:45:48.030Z,48.93
2018-07-12T04:48:15.363Z,40.40
2018-07-12T04:50:42.820Z,51.23
2018-07-12T04:53:10.177Z,41.13
2018-07-12T04:55:37.541Z,39.73
2018-07-12T04:58:04.905Z,51.13
2018-07-12T05:00:32.210Z,47.27
2018-07-12T05:02:59.590Z,43.87
2018-07-12T05:05:27.003Z,48.33
2018-07-12T05:07:54.341Z,44.50
2018-07-12T05:10:21.640Z,53.53
2018-07-12T05:12:49.032Z,68.77
2018-07-12T05:15:16.387Z,42.70
2018-07-12T05:17:43.769Z,48.27
2018-07-12T05:20:11.105Z,50.00
2018-07-12T05:22:38.450Z,73.27
2018-07-12T05:25:05.815Z,47.93
2018-07-12T05:27:33.158Z,44.20
2018-07-12T05:30:00.496Z,37.67
2018-07-12T05:32:27.914Z,39.30
2018-07-12T05:34:55.299Z,50.70
2018-07-12T05:37:24.030Z,37.67
2018-07-12T05:39:52.734Z,47.77
2018-07-12T05:42:21.525Z,43.37
2018-07-12T05:44:50.128Z,47.33
2018-07-12T05:47:18.790Z,28.43
2018-07-12T05:49:47.523Z,31.10
2018-07-12T05:52:16.262Z,27.60
2018-07-12T05:54:45.034Z,41.83
2018-07-12T05:57:13.778Z,36.70
2018-07-12T05:59:42.504Z,40.20
2018-07-12T06:02:17.243Z,31.53
2018-07-12T06:04:45.890Z,42.00
2018-07-12T06:07:15.486Z,31.07
2018-07-12T06:09:44.105Z,34.00
2018-07-12T06:12:12.843Z,36.17
2018-07-12T06:14:41.775Z,30.97
2018-07-12T06:17:10.554Z,29.20
2018-07-12T06:19:39.288Z,27.27
2018-07-12T06:22:08.082Z,34.00
2018-07-12T06:24:36.760Z,41.93
2018-07-12T06:27:05.440Z,31.30
2018-07-12T06:29:34.030Z,27.50
2018-07-12T06:32:02.710Z,30.80
2018-07-12T06:34:31.314Z,27.30
2018-07-12T06:37:00.072Z,22.17
2018-07-12T06:39:28.724Z,21.70
2018-07-12T06:41:58.445Z,20.47
2018-07-12T06:44:27.079Z,27.37
2018-07-12T06:46:55.829Z,24.47
2018-07-12T06:49:24.510Z,22.60
2018-07-12T06:52:06.687Z,18.57
2018-07-12T06:54:35.302Z,22.33
2018-07-12T06:57:03.983Z,19.63
2018-07-12T06:59:32.699Z,17.73
2018-07-12T07:02:01.323Z,21.50
2018-07-12T07:04:29.987Z,24.00
2018-07-12T07:06:58.816Z,22.60
2018-07-12T07:09:28.230Z,24.23
2018-07-12T07:12:01.361Z,18.87
2018-07-12T07:14:30.039Z,14.80
2018-07-12T07:16:58.853Z,15.97
2018-07-12T07:19:27.631Z,35.43
2018-07-12T07:21:56.274Z,16.97
2018-07-12T07:24:24.847Z,13.90
2018-07-12T07:26:53.483Z,14.00
2018-07-12T07:29:22.237Z,11.80
2018-07-12T07:31:51.754Z,21.07
2018-07-12T07:34:20.400Z,10.40
2018-07-12T07:36:49.049Z,25.80
2018-07-12T07:39:24.469Z,12.47
2018-07-12T07:41:53.164Z,10.97
2018-07-12T07:44:21.854Z,11.07
2018-07-12T07:46:50.441Z,11.37
2018-07-12T07:49:19.069Z,12.10
2018-07-12T07:52:14.494Z,9.70
2018-07-12T07:54:43.078Z,11.47
2018-07-12T07:57:11.960Z,18.23
2018-07-12T07:59:40.554Z,11.83
2018-07-12T08:02:18.186Z,10.13
2018-07-12T08:04:46.897Z,9.00
2018-07-12T08:07:15.524Z,10.77
2018-07-12T08:09:44.099Z,8.27
2018-07-12T08:12:16.035Z,10.97
2018-07-12T08:14:44.723Z,10.80
2018-07-12T08:17:13.410Z,8.80
2018-07-12T08:19:42.044Z,20.03
2018-07-12T08:22:27.965Z,8.93
2018-07-12T08:24:56.558Z,10.70
2018-07-12T08:27:25.779Z,11.23
2018-07-12T08:29:54.397Z,10.83
2018-07-12T08:32:36.228Z,9.70
2018-07-12T08:35:04.831Z,12.73
2018-07-12T08:37:33.451Z,8.77
2018-07-12T08:40:02.006Z,17.90
2018-07-12T08:42:35.213Z,7.13
2018-07-12T08:45:03.861Z,8.87
2018-07-12T08:47:32.554Z,8.33
2018-07-12T08:50:01.148Z,24.20
2018-07-12T08:52:40.826Z,8.83
2018-07-12T08:55:09.368Z,10.73
2018-07-12T08:57:37.909Z,7.97
2018-07-12T09:00:06.500Z,11.13
2018-07-12T09:02:42.915Z,7.73
2018-07-12T09:05:11.479Z,9.37
2018-07-12T09:07:40.151Z,9.47
2018-07-12T09:10:08.832Z,14.93
2018-07-12T09:12:45.543Z,12.47
2018-07-12T09:15:14.552Z,12.50
2018-07-12T09:17:43.415Z,8.27
2018-07-12T09:20:12.102Z,9.50
2018-07-12T09:22:49.066Z,9.80
2018-07-12T09:25:17.754Z,29.23
2018-07-12T09:27:46.944Z,8.73
2018-07-12T09:30:16.074Z,18.43
2018-07-12T09:32:44.747Z,13.40
2018-07-12T09:35:13.465Z,22.07
2018-07-12T09:37:42.194Z,12.27
2018-07-12T09:40:10.913Z,10.60
2018-07-12T09:42:39.606Z,15.83
2018-07-12T09:45:08.532Z,15.47
2018-07-12T09:47:37.295Z,19.30
2018-07-12T09:50:05.992Z,17.87
2018-07-12T09:52:45.034Z,15.83
2018-07-12T09:55:13.678Z,17.40
2018-07-12T09:57:53.510Z,25.33
2018-07-12T10:00:26.339Z,16.97
2018-07-12T10:03:05.782Z,11.67
2018-07-12T10:05:39.709Z,17.47
2018-07-12T10:08:22.488Z,16.97
2018-07-12T10:10:56.373Z,14.43
2018-07-12T10:13:51.327Z,14.13
2018-07-12T10:16:25.650Z,11.10
2018-07-12T10:18:54.356Z,14.63
2018-07-12T10:21:22.992Z,12.70
2018-07-12T10:23:53.742Z,11.77
2018-07-12T10:26:22.361Z,12.60
2018-07-12T10:28:51.145Z,13.93
2018-07-12T10:31:19.999Z,14.17
2018-07-12T10:33:48.878Z,13.70
2018-07-12T10:36:17.647Z,14.10
2018-07-12T10:38:46.326Z,17.00
2018-07-12T10:41:14.967Z,17.53
2018-07-12T10:44:00.400Z,16.47
2018-07-12T10:46:28.998Z,13.50
2018-07-12T10:48:57.660Z,15.73
2018-07-12T10:51:26.459Z,14.17
2018-07-12T10:53:57.179Z,15.03
2018-07-12T10:56:25.835Z,24.03
2018-07-12T10:58:54.557Z,13.03
2018-07-12T11:01:23.399Z,18.10
2018-07-12T11:03:55.703Z,28.20
2018-07-12T11:06:24.330Z,34.43
2018-07-12T11:08:53.059Z,15.33
2018-07-12T11:11:21.847Z,16.33
2018-07-12T11:13:54.830Z,14.67
2018-07-12T11:16:23.536Z,12.57
2018-07-12T11:18:52.247Z,15.03
2018-07-12T11:21:21.108Z,18.43
2018-07-12T11:23:49.796Z,11.77
2018-07-12T11:26:18.500Z,13.23
2018-07-12T11:28:47.127Z,14.43
2018-07-12T11:31:15.749Z,13.13
2018-07-12T11:33:46.442Z,13.00
2018-07-12T11:36:15.082Z,11.73
2018-07-12T11:38:44.656Z,16.90
2018-07-12T11:41:13.570Z,14.10
2018-07-12T11:43:45.881Z,11.43
2018-07-12T11:46:15.719Z,13.63
2018-07-12T11:48:45.092Z,12.77
2018-07-12T11:51:13.854Z,12.30
2018-07-12T11:53:45.792Z,14.07
2018-07-12T11:56:14.474Z,11.20
2018-07-12T11:58:43.140Z,11.30
2018-07-12T12:01:11.791Z,10.73
2018-07-12T12:03:41.468Z,10.47
2018-07-12T12:06:10.094Z,12.73
2018-07-12T12:08:38.689Z,11.40
2018-07-12T12:11:07.325Z,11.10
2018-07-12T12:13:37.038Z,18.93
2018-07-12T12:16:05.882Z,13.23
2018-07-12T12:18:34.640Z,11.10
2018-07-12T12:21:03.307Z,11.30
2018-07-12T12:23:32.059Z,8.93
2018-07-12T12:26:00.698Z,9.07
2018-07-12T12:28:29.318Z,9.90
2018-07-12T12:30:57.974Z,16.70
2018-07-12T12:33:26.534Z,9.27
2018-07-12T12:35:57.549Z,8.93
2018-07-12T12:38:26.438Z,9.43
2018-07-12T12:40:55.075Z,9.30
2018-07-12T12:43:23.653Z,7.20
2018-07-12T12:45:54.414Z,5.80
2018-07-12T12:48:23.140Z,7.30
2018-07-12T12:50:51.755Z,7.30
2018-07-12T12:53:21.316Z,7.87
2018-07-12T12:55:49.977Z,7.80
2018-07-12T12:58:19.026Z,7.50
2018-07-12T13:00:47.773Z,11.33
2018-07-12T13:03:16.414Z,5.87
2018-07-12T13:05:46.052Z,5.83
2018-07-12T13:08:14.703Z,5.50
2018-07-12T13:10:43.392Z,6.10
2018-07-12T13:13:12.032Z,5.80
2018-07-12T13:15:40.706Z,6.80
2018-07-12T13:18:09.399Z,7.37
2018-07-12T13:20:37.979Z,9.30
2018-07-12T13:23:06.614Z,6.40
2018-07-12T13:25:37.497Z,5.63
2018-07-12T13:28:06.201Z,5.30
2018-07-12T13:30:34.825Z,5.23
2018-07-12T13:33:03.416Z,7.37
2018-07-12T13:35:39.152Z,5.20
2018-07-12T13:38:07.882Z,5.37
2018-07-12T13:40:36.429Z,5.80
2018-07-12T13:43:05.045Z,4.80
2018-07-12T13:45:34.813Z,5.83
2018-07-12T13:48:03.441Z,4.67
2018-07-12T13:50:32.137Z,5.37
2018-07-12T13:53:00.796Z,5.17
2018-07-12T13:55:41.896Z,5.37
2018-07-12T13:58:10.696Z,5.00
2018-07-12T14:00:39.338Z,9.50
2018-07-12T14:03:08.001Z,8.03
2018-07-12T14:05:53.425Z,5.33
2018-07-12T14:08:22.116Z,4.57
2018-07-12T14:10:50.940Z,4.60
2018-07-12T14:13:19.587Z,4.90
2018-07-12T14:15:49.438Z,5.53
2018-07-12T14:18:18.060Z,4.80
2018-07-12T14:20:46.738Z,4.77
2018-07-12T14:23:15.508Z,6.10
2018-07-12T14:25:53.935Z,8.00
2018-07-12T14:28:22.690Z,5.83
2018-07-12T14:30:51.565Z,7.70
2018-07-12T14:33:20.470Z,5.17
2018-07-12T14:35:51.425Z,3.80
2018-07-12T14:38:20.296Z,4.47
2018-07-12T14:40:49.014Z,4.27
2018-07-12T14:43:17.640Z,3.63
2018-07-12T14:45:47.363Z,4.30
2018-07-12T14:48:16.009Z,4.87
2018-07-12T14:50:44.628Z,4.00
2018-07-12T14:53:13.167Z,4.83
2018-07-12T14:55:58.347Z,4.77
2018-07-12T14:58:26.955Z,4.47
2018-07-12T15:00:55.670Z,4.13
2018-07-12T15:03:24.490Z,4.60
2018-07-12T15:05:54.178Z,4.60
2018-07-12T15:08:22.817Z,4.00
2018-07-12T15:10:51.455Z,4.67
2018-07-12T15:13:20.148Z,4.40
2018-07-12T15:15:52.443Z,4.57
2018-07-12T15:18:21.330Z,8.00
2018-07-12T15:20:49.976Z,5.60
2018-07-12T15:23:18.809Z,5.77
2018-07-12T15:25:49.872Z,6.83
2018-07-12T15:28:18.518Z,5.10
2018-07-12T15:30:47.252Z,6.90
2018-07-12T15:33:16.058Z,4.03
2018-07-12T15:35:44.782Z,4.40
2018-07-12T15:38:13.393Z,4.57
2018-07-12T15:40:42.064Z,4.33
2018-07-12T15:43:10.694Z,3.77
2018-07-12T15:45:39.601Z,4.50
2018-07-12T15:48:08.232Z,5.10
2018-07-12T15:50:36.925Z,4.70
2018-07-12T15:53:05.625Z,4.60
2018-07-12T15:55:34.376Z,7.00
2018-07-12T15:58:03.104Z,4.90
2018-07-12T16:00:31.909Z,5.70
2018-07-12T16:03:00.881Z,4.97
2018-07-12T16:05:29.522Z,5.70
2018-07-12T16:07:59.303Z,5.77
2018-07-12T16:10:28.122Z,13.43
2018-07-12T16:12:56.933Z,6.83
2018-07-12T16:15:25.566Z,10.57
2018-07-12T16:18:02.891Z,6.20
2018-07-12T16:20:31.567Z,5.57
2018-07-12T16:23:00.195Z,5.93
2018-07-12T16:25:28.897Z,5.20
2018-07-12T16:28:01.314Z,11.43
2018-07-12T16:30:30.039Z,9.67
2018-07-12T16:32:58.727Z,6.57
2018-07-12T16:35:27.461Z,5.10
2018-07-12T16:37:57.214Z,5.83
2018-07-12T16:40:25.782Z,5.03
2018-07-12T16:42:54.445Z,5.00
2018-07-12T16:45:23.146Z,5.43
2018-07-12T16:47:51.798Z,5.90
2018-07-12T16:50:20.446Z,5.57
2018-07-12T16:52:49.103Z,6.73
2018-07-12T16:55:17.853Z,5.27
2018-07-12T16:57:46.612Z,5.87
2018-07-12T17:00:19.143Z,6.50
2018-07-12T17:02:49.111Z,6.00
2018-07-12T17:05:17.992Z,6.37
2018-07-12T17:07:46.659Z,5.47
2018-07-12T17:10:15.421Z,5.87
2018-07-12T17:12:44.251Z,5.70
2018-07-12T17:15:12.976Z,7.33
2018-07-12T17:17:41.792Z,6.30
2018-07-12T17:20:10.399Z,6.20
2018-07-12T17:22:39.130Z,19.90
2018-07-12T17:25:08.002Z,5.83
2018-07-12T17:27:36.759Z,6.20
2018-07-12T17:30:05.547Z,5.87
2018-07-12T17:32:34.309Z,8.80
2018-07-12T17:35:02.955Z,5.60
2018-07-12T17:37:31.671Z,6.30
2018-07-12T17:40:00.368Z,6.57
2018-07-12T17:42:29.110Z,10.00
2018-07-12T17:44:57.954Z,9.70
2018-07-12T17:47:26.733Z,4.33
2018-07-12T17:49:55.463Z,5.10
2018-07-12T17:52:24.206Z,6.30
2018-07-12T17:54:52.931Z,5.00
2018-07-12T17:57:21.675Z,5.20
2018-07-12T17:59:50.254Z,5.00
2018-07-12T18:02:19.002Z,5.60
2018-07-12T18:04:47.709Z,5.37
2018-07-12T18:07:16.399Z,4.53
2018-07-12T18:09:45.134Z,6.00
2018-07-12T18:12:14.129Z,5.47
2018-07-12T18:14:43.145Z,5.97
2018-07-12T18:17:11.948Z,4.77
2018-07-12T18:19:40.630Z,5.17
2018-07-12T18:22:09.342Z,5.13
2018-07-12T18:24:38.082Z,6.33
2018-07-12T18:27:06.833Z,4.77
2018-07-12T18:29:35.452Z,9.40
2018-07-12T18:32:04.156Z,8.40
2018-07-12T18:34:32.907Z,4.23
2018-07-12T18:37:01.617Z,4.97
2018-07-12T18:39:30.254Z,4.93
2018-07-12T18:41:58.959Z,7.50
2018-07-12T18:44:28.866Z,4.00
2018-07-12T18:46:57.501Z,5.00
2018-07-12T18:49:26.284Z,4.50
2018-07-12T18:51:55.068Z,6.10
2018-07-12T18:54:23.789Z,5.20
2018-07-12T18:56:52.380Z,4.27
2018-07-12T18:59:24.153Z,4.20
2018-07-12T19:01:52.752Z,4.80
2018-07-12T19:04:21.380Z,6.77
2018-07-12T19:06:49.975Z,5.50
2018-07-12T19:09:18.663Z,8.30
2018-07-12T19:11:47.315Z,4.50
2018-07-12T19:14:16.056Z,5.27
2018-07-12T19:16:44.766Z,4.40
2018-07-12T19:19:13.456Z,6.90
2018-07-12T19:21:42.280Z,6.27
2018-07-12T19:24:11.023Z,14.87
2018-07-12T19:26:39.712Z,6.13
2018-07-12T19:29:08.688Z,4.97
2018-07-12T19:31:37.414Z,5.10
2018-07-12T19:34:06.130Z,5.73
2018-07-12T19:36:34.751Z,5.30
2018-07-12T19:39:04.336Z,7.20
2018-07-12T19:41:32.977Z,8.47
2018-07-12T19:44:01.762Z,6.63
2018-07-12T19:46:30.475Z,5.37
2018-07-12T19:49:00.256Z,6.40
2018-07-12T19:51:29.192Z,6.53
2018-07-12T19:53:58.015Z,4.87
2018-07-12T19:56:26.687Z,6.33
2018-07-12T19:58:55.410Z,5.20
2018-07-12T20:01:24.036Z,7.00
2018-07-12T20:03:52.726Z,7.00
2018-07-12T20:06:21.368Z,5.93
2018-07-12T20:08:50.101Z,7.27
2018-07-12T20:11:18.792Z,18.33
2018-07-12T20:13:47.483Z,8.23
2018-07-12T20:16:16.220Z,9.80
2018-07-12T20:18:44.906Z,9.50
2018-07-12T20:21:13.688Z,6.67
2018-07-12T20:23:42.509Z,4.77
2018-07-12T20:26:11.251Z,6.40
2018-07-12T20:28:41.021Z,5.40
2018-07-12T20:31:10.567Z,9.73
2018-07-12T20:33:39.629Z,8.57
2018-07-12T20:36:08.363Z,7.13
2018-07-12T20:38:37.168Z,6.47
2018-07-12T20:41:05.916Z,7.37
2018-07-12T20:43:34.554Z,5.70
2018-07-12T20:46:03.399Z,4.93
2018-07-12T20:48:32.197Z,5.63
2018-07-12T20:51:00.916Z,5.90
2018-07-12T20:53:29.732Z,4.30
2018-07-12T20:55:58.596Z,6.63
2018-07-12T20:58:27.362Z,6.70
2018-07-12T21:00:56.181Z,6.80
2018-07-12T21:03:24.858Z,6.20
2018-07-12T21:05:53.506Z,7.00
2018-07-12T21:08:22.191Z,6.80
2018-07-12T21:10:51.499Z,7.70
2018-07-12T21:13:20.188Z,6.83
2018-07-12T21:15:48.876Z,9.03
2018-07-12T21:18:17.540Z,6.93
2018-07-12T21:20:46.204Z,6.87
2018-07-12T21:23:14.949Z,6.20
2018-07-12T21:25:43.533Z,7.20
2018-07-12T21:28:12.158Z,10.53
2018-07-12T21:30:40.878Z,7.73
2018-07-12T21:33:09.819Z,6.67
2018-07-12T21:35:38.436Z,8.13
2018-07-12T21:38:07.166Z,5.50
2018-07-12T21:40:35.867Z,7.73
2018-07-12T21:43:04.553Z,7.80
2018-07-12T21:45:33.151Z,12.23
2018-07-12T21:48:01.919Z,7.53
2018-07-12T21:50:30.625Z,7.33
2018-07-12T21:52:59.323Z,6.23
2018-07-12T21:55:28.426Z,8.47
2018-07-12T21:57:57.033Z,7.47
2018-07-12T22:00:25.827Z,12.90
2018-07-12T22:02:54.665Z,12.33
2018-07-12T22:05:23.497Z,7.23
2018-07-12T22:08:03.167Z,6.33
2018-07-12T22:10:31.947Z,10.53
2018-07-12T22:13:00.630Z,23.73
2018-07-12T22:15:29.315Z,5.77
2018-07-12T22:17:57.853Z,6.20
2018-07-12T22:20:26.527Z,14.53
2018-07-12T22:22:55.309Z,7.27
2018-07-12T22:25:24.046Z,5.93
2018-07-12T22:27:53.059Z,7.40
2018-07-12T22:30:21.798Z,10.53
2018-07-12T22:32:50.287Z,8.63
2018-07-12T22:35:19.026Z,8.07
2018-07-12T22:37:48.114Z,8.10
2018-07-12T22:40:16.787Z,9.77
2018-07-12T22:42:45.482Z,8.20
2018-07-12T22:45:14.191Z,9.27
2018-07-12T22:47:49.843Z,7.97
2018-07-12T22:50:18.685Z,9.40
2018-07-12T22:52:47.652Z,22.27
2018-07-12T22:55:16.930Z,11.00
2018-07-12T22:57:45.510Z,7.07
2018-07-12T23:00:14.207Z,8.43
2018-07-12T23:02:43.563Z,8.60
2018-07-12T23:05:12.059Z,7.90
2018-07-12T23:07:41.036Z,14.43
2018-07-12T23:10:09.614Z,8.90
2018-07-12T23:12:38.167Z,8.67
2018-07-12T23:15:06.844Z,9.73
2018-07-12T23:17:35.446Z,9.00
2018-07-12T23:20:05.018Z,14.60
2018-07-12T23:22:33.640Z,7.97
2018-07-12T23:25:02.369Z,10.33
2018-07-12T23:27:30.985Z,14.00
2018-07-12T23:30:00.089Z,20.13
2018-07-12T23:32:28.815Z,9.77
2018-07-12T23:34:57.430Z,9.47
2018-07-12T23:37:26.405Z,7.90
2018-07-12T23:39:54.931Z,9.33
2018-07-12T23:42:23.790Z,10.53
2018-07-12T23:44:52.422Z,11.87
2018-07-12T23:47:21.141Z,10.37
2018-07-12T23:49:49.905Z,10.67
2018-07-12T23:52:18.729Z,9.90
2018-07-12T23:54:47.401Z,16.57
2018-07-12T23:57:16.110Z,8.73
2018-07-12T23:59:44.799Z,11.07
